• Join FlightAware (Why Join?)
  • Login
  • US Flag 
10:21PM EST


 

Airport Tracker/Info


-or-


 

Live Flight TrackerFlight Track Log ✈ PDT4226 ✈ 26-Jan-2014 ✈ KBGM - KPHL

Flight Track Log - Related Links

Times and Time Zones

All times are in EST time to prevent confusion due to time zone crossing. See the PDT4226 flight status page for this flight to view local times or setup timezone preferences in your user account.

Time Position Orientation Groundspeed Altitude Reporting Facility
EST Latitude Longitude Course Direction KTS MPH feet Rate Location/Type
01:42PM 42.0626 -75.9319 173° South  Level Estimated
01:43PM 42.0140 -75.9160 180° South  Level Estimated
01:44PM 41.9654 -75.9002 180° South  Level Estimated
01:45PM 41.9157 -75.9079 187° South  Level FlightAware Approximate
01:46PM 41.8660 -75.9155 187° South  Level FlightAware Approximate
01:47PM 41.8163 -75.9232 187° South  Level FlightAware Approximate
01:48PM 41.7666 -75.9308 187° South  Level FlightAware Approximate
01:49PM 41.7184 -75.9127 154° Southeast  Level Estimated
01:50PM 41.6702 -75.8947 160° South  Level Estimated
01:51PM 41.6220 -75.8767 159° South  Level Estimated
01:52PM 41.5768 -75.8482 155° Southeast  Level FlightAware Approximate
01:53PM 41.5315 -75.8198 155° Southeast  Level FlightAware Approximate
01:54PM 41.4832 -75.8025 153° Southeast  Level Estimated
01:55PM 41.4349 -75.7852 161° South  Level Estimated
01:56PM 41.3893 -75.7576 156° South  Level FlightAware Approximate
01:57PM 41.3438 -75.7300 156° South  Level FlightAware Approximate
01:58PM 41.2983 -75.7024 156° South  Level FlightAware Approximate
01:59PM 41.2497 -75.6864 162° South  Level Estimated
02:00PM 41.2027 -75.6637 160° South  Level FlightAware Approximate
02:01PM 41.1556 -75.6412 160° South  Level FlightAware Approximate
02:02PM 41.1086 -75.6186 160° South  Level FlightAware Approximate
02:03PM 41.0615 -75.5961 160° South  Level FlightAware Approximate
02:04PM 41.0145 -75.5736 160° South  Level FlightAware Approximate
02:05PM 40.9502 -75.5546 163° South  Level Estimated
02:06PM 40.8879 -75.5266 161° South  Level FlightAware Approximate
02:06PM 40.7167 -75.4500 187° South 213 245 8,200  Level Philadelphia TRACON
02:07PM 40.8256 -75.4986 161° South  Level FlightAware Approximate
02:07PM 40.6833 -75.4500 180° South 193 222 8,200  Level Philadelphia TRACON
02:08PM 40.7632 -75.4708 161° South  Level FlightAware Approximate
02:08PM 40.6500 -75.4667 201° Southwest 186 214 8,000  Level Philadelphia TRACON
02:09PM 40.6987 -75.4539 190° South  Level Estimated
02:09PM 40.5833 -75.5000 201° Southwest 200 230 7,300  Level Philadelphia TRACON
02:10PM 40.6338 -75.4690 190° South  Level FlightAware Approximate
02:10PM 40.5333 -75.4500 143° Southeast 242 278 6,600  Level Philadelphia TRACON
02:11PM 40.5690 -75.4840 190° South  Level FlightAware Approximate
02:11PM 40.4833 -75.4167 153° Southeast 237 273 5,900  Level Philadelphia TRACON
02:12PM 40.5054 -75.4616 187° South  Level Estimated
02:12PM 40.4167 -75.3667 150° Southeast 235 270 5,200  Level Philadelphia TRACON
02:13PM 40.3667 -75.3333 153° Southeast 231 266 5,000 -120 Descending Philadelphia TRACON
02:14PM 40.3167 -75.3000 153° Southeast 224 258 5,000 -120 Level Philadelphia TRACON
02:15PM 40.2500 -75.2667 159° South 219 252 4,800 -480 Descending Philadelphia TRACON
02:16PM 40.2000 -75.2333 153° Southeast 217 250 4,100 -420 Descending Philadelphia TRACON
02:17PM 40.1500 -75.2167 166° South 199 229 4,000 -60 Descending Philadelphia TRACON
02:18PM 40.0833 -75.2000 169° South 196 226 4,000  Level Philadelphia TRACON
02:19PM 40.0333 -75.2000 180° South 187 215 4,000  Level Philadelphia TRACON
02:20PM 39.9833 -75.1833 166° South 180 207 4,000  Level Philadelphia TRACON
02:21PM 39.9333 -75.1667 166° South 179 206 4,000 -300 Level Philadelphia TRACON
02:22PM 39.8833 -75.1500 166° South 183 211 3,500 -540 Descending Philadelphia TRACON
02:23PM 39.8333 -75.1333 166° South 188 216 3,000 -840 Descending Philadelphia TRACON
02:24PM 39.8000 -75.1667 218° Southwest 160 184 1,900 -1,020 Descending Philadelphia TRACON
02:25PM 39.8333 -75.2167 311° West 152 175 1,000 -900 Descending Philadelphia TRACON
02:26PM 39.8667 -75.2333 339° North 119 137 200 -840 Descending Philadelphia TRACON